Date,TemperatureHighF,TemperatureAvgF,TemperatureLowF,DewpointHighF,DewpointAvgF,DewpointLowF,HumidityHigh,HumidityAvg,HumidityLow,PressureMaxIn,PressureMinIn,WindSpeedMaxMPH,WindSpeedAvgMPH,GustSpeedMaxMPH,PrecipitationSumIn
2013-1-1,32.7,22.4,10.0,27.8,15.8,7.2,91,76,59,30.05,29.88,4,1,11,0.00
2013-1-2,28.1,21.6,13.8,18.5,14.8,10.0,85,75,65,30.21,30.02,5,2,12,0.00
2013-1-3,30.5,23.4,11.8,27.0,19.9,8.9,92,86,81,30.20,29.98,6,2,11,0.00
2013-1-4,33.2,30.3,26.2,26.8,24.4,20.6,85,78,75,30.06,29.89,11,6,24,0.00
2013-1-5,36.4,31.0,28.6,28.7,25.3,22.5,85,79,68,30.29,30.04,5,2,9,0.01
2013-1-6,35.3,33.7,31.7,33.0,31.0,24.6,94,90,75,30.10,29.88,5,3,11,0.13
2013-1-7,33.7,29.1,24.4,31.1,23.9,20.3,90,81,72,30.40,30.10,5,2,14,0.00
2013-1-8,37.3,31.4,26.4,30.5,25.5,21.4,93,79,73,30.31,30.16,5,2,11,0.00
2013-1-9,45.5,37.6,27.0,36.7,30.6,21.6,83,76,61,30.37,29.97,10,4,19,0.00
2013-1-10,42.8,35.9,31.2,29.4,27.9,26.2,85,73,57,30.59,30.36,3,0,5,0.00
2013-1-11,50.3,43.0,33.5,46.6,37.6,27.3,89,81,65,30.37,29.83,6,2,10,0.12
2013-1-12,60.6,52.3,43.3,51.4,47.9,41.8,96,85,71,29.98,29.91,6,2,11,0.00
2013-1-13,66.7,54.0,46.3,57.5,50.4,45.2,97,88,72,29.93,29.70,7,2,18,0.67
2013-1-14,46.1,33.2,26.7,45.0,27.2,19.1,96,79,63,30.39,29.73,5,2,12,0.08
2013-1-15,32.0,27.6,25.2,22.1,20.8,19.1,85,75,64,30.41,30.16,3,0,5,0.00
2013-1-16,37.8,32.1,27.2,30.3,25.5,21.3,84,77,65,30.16,29.79,8,2,15,0.00
2013-1-17,34.6,24.9,14.8,29.0,19.1,12.0,90,78,72,30.18,29.85,7,3,13,0.00
2013-1-18,32.1,20.8,13.0,18.8,12.9,7.4,91,72,57,30.46,30.02,7,2,13,0.00
2013-1-19,48.5,41.5,32.1,31.1,26.7,18.2,67,56,43,30.03,29.56,9,4,19,0.00
2013-1-20,48.6,29.7,17.1,35.0,18.2,9.2,82,63,45,30.09,29.46,11,5,21,0.00
2013-1-21,20.9,16.5,10.2,14.8,8.9,-0.6,88,72,56,30.07,29.88,3,1,6,0.00
2013-1-22,11.8,7.8,4.6,-0.4,-3.3,-5.5,67,60,51,30.21,29.93,5,3,13,0.00
2013-1-23,14.8,9.5,3.5,6.4,-0.1,-4.2,80,65,49,30.25,30.13,3,1,6,0.00
2013-1-24,14.7,9.3,-0.4,11.5,4.3,-3.6,90,81,62,30.55,30.11,4,1,9,0.00
2013-1-25,18.1,9.8,-0.7,10.4,5.0,-3.9,91,81,62,30.53,30.09,2,0,5,0.00
2013-1-26,26.6,15.8,6.3,15.2,10.4,3.8,93,80,59,30.42,30.11,1,0,3,0.00
2013-1-27,31.4,20.7,7.8,19.7,14.8,5.5,93,79,55,30.57,30.34,2,0,5,0.01
2013-1-28,42.7,35.1,24.8,41.8,32.5,16.7,97,91,65,30.33,29.83,5,1,12,0.09
2013-1-29,56.9,43.5,34.8,54.2,42.2,33.2,98,95,91,30.03,29.67,4,1,10,0.61
2013-1-30,66.4,59.0,49.6,56.6,52.1,45.9,93,79,63,29.67,29.00,9,4,17,0.54
2013-1-31,51.1,28.6,20.7,48.0,20.6,10.4,93,72,48,29.72,29.01,10,6,21,0.16
2013-2-1,23.0,18.9,16.0,16.4,12.0,6.9,88,74,57,30.20,29.72,5,2,10,0.00
2013-2-2,19.4,16.5,12.3,14.4,11.8,6.1,91,82,69,30.19,29.97,5,2,9,0.00
2013-2-3,25.7,16.9,4.8,17.1,12.2,2.4,94,82,56,29.98,29.80,3,0,9,0.00
2013-2-4,20.7,17.2,12.5,14.7,10.9,7.4,88,76,60,29.99,29.87,4,2,12,0.00
2013-2-5,29.1,21.0,12.4,22.4,15.1,10.3,92,79,55,29.95,29.84,4,1,7,0.00
2013-2-6,27.1,26.0,23.9,23.3,21.6,18.3,86,83,77,30.13,29.87,5,2,11,0.00
2013-2-7,28.4,27.2,26.6,21.3,20.6,19.9,80,76,72,30.13,30.05,5,3,8,0.01
2013-2-8,32.3,26.1,16.7,31.0,23.3,14.8,95,89,79,30.14,29.75,3,1,6,0.00
2013-2-9,22.0,17.1,10.9,17.2,14.2,8.5,93,88,80,30.43,30.14,0,0,0,0.00
2013-2-10,39.8,24.0,5.7,28.4,17.5,3.3,92,77,54,30.41,29.92,3,0,6,0.36
2013-2-11,50.9,38.6,31.7,41.9,32.1,24.6,95,78,56,29.92,29.55,10,5,22,0.38
2013-2-12,33.7,31.8,30.2,29.7,26.6,23.2,94,81,73,29.97,29.73,7,4,21,0.00
2013-2-13,34.0,25.8,18.2,23.4,20.8,16.3,94,82,64,29.90,29.73,2,0,3,0.00
2013-2-14,41.0,31.7,18.1,34.5,27.0,16.3,96,84,55,29.90,29.75,6,2,11,0.14
2013-2-15,37.3,31.0,19.0,32.6,23.5,14.2,83,74,62,30.07,29.76,7,4,16,0.00
2013-2-16,32.2,23.4,17.8,19.7,14.7,9.1,86,70,45,30.07,29.91,3,0,8,0.00
2013-2-17,19.8,15.1,11.9,17.4,9.2,3.4,91,77,63,30.23,29.91,5,2,12,0.00
2013-2-18,36.2,22.7,7.2,22.4,11.9,4.2,90,65,41,30.30,29.86,3,1,7,0.00
2013-2-19,42.7,33.8,22.8,37.1,26.8,17.9,92,76,55,29.86,29.53,9,5,17,0.40
2013-2-20,23.3,20.3,18.3,18.7,13.3,10.6,86,74,64,30.12,29.76,7,5,17,0.00
2013-2-21,22.9,19.1,14.9,15.6,13.0,9.4,86,77,66,30.42,30.09,4,2,11,0.00
2013-2-22,34.8,27.9,19.4,30.1,22.9,15.2,91,82,67,30.40,29.98,3,1,7,0.02
2013-2-23,38.9,33.1,29.8,31.7,28.0,24.1,85,82,74,29.98,29.87,3,2,8,0.02
2013-2-24,31.3,29.9,27.9,26.8,24.7,22.7,89,81,73,30.09,29.85,5,2,10,0.00
2013-2-25,34.5,30.6,23.1,29.2,25.9,21.1,93,82,77,30.22,30.09,2,0,5,0.00
2013-2-26,44.1,33.0,21.1,32.8,26.3,19.1,94,78,52,30.22,29.69,5,1,10,0.99
2013-2-27,34.5,33.7,32.6,33.3,31.9,31.3,96,93,90,29.70,29.58,4,2,14,0.18
2013-2-28,34.8,33.3,31.1,32.7,31.7,30.1,96,94,90,29.75,29.56,3,0,6,0.24
2013-3-1,31.1,27.8,24.3,30.1,23.9,20.1,96,85,78,29.97,29.75,3,1,8,0.00
2013-3-2,25.1,22.9,20.2,20.3,18.3,16.3,86,83,77,29.97,29.91,2,1,8,0.00
2013-3-3,25.4,22.3,19.8,20.2,18.4,15.3,92,85,73,29.94,29.87,2,1,6,0.00
2013-3-4,30.7,24.5,18.2,22.6,18.8,14.8,87,79,63,30.08,29.94,4,2,10,0.00
2013-3-5,36.3,27.0,18.5,24.0,20.7,15.5,89,77,58,30.11,29.94,6,1,12,0.09
2013-3-6,41.5,32.2,22.8,31.7,27.1,20.0,90,82,64,30.15,29.94,5,2,11,0.03
2013-3-7,40.9,33.8,28.8,32.1,29.8,26.8,95,86,65,30.28,30.14,3,1,8,0.01
2013-3-8,43.0,33.9,27.1,29.6,26.4,22.3,96,76,49,30.41,30.27,6,2,14,0.02
2013-3-9,50.3,35.5,23.5,33.6,28.0,22.0,96,76,48,30.42,30.17,3,0,5,0.00
2013-3-10,68.0,53.6,33.1,34.7,28.9,24.2,79,41,28,30.17,29.91,6,2,12,0.00
2013-3-11,65.0,55.7,46.3,43.9,32.4,29.4,91,42,30,29.92,29.59,7,3,18,0.16
2013-3-12,46.4,36.8,32.9,43.9,32.7,28.6,93,85,77,29.90,29.66,6,4,18,0.07
2013-3-13,34.5,29.8,21.1,29.2,24.3,15.5,91,80,61,29.99,29.83,8,4,18,0.03
2013-3-14,35.0,26.3,20.2,17.1,12.9,3.3,87,59,30,30.09,29.99,5,2,11,0.00
2013-3-15,36.4,31.0,24.3,32.0,25.4,16.3,91,80,62,30.06,29.76,6,3,15,0.02
2013-3-16,28.6,25.8,16.6,21.8,18.4,14.2,91,73,66,30.00,29.83,5,2,8,0.00
2013-3-17,31.7,24.5,16.0,20.7,15.7,8.7,93,71,46,30.33,30.00,5,1,10,0.00
2013-3-18,35.6,27.0,17.4,31.1,18.9,8.5,90,72,47,30.33,29.65,5,2,11,0.02
2013-3-19,36.7,30.8,23.5,33.9,25.5,18.3,94,81,65,29.84,29.64,8,4,15,0.18
2013-3-20,33.1,25.8,20.1,22.7,19.5,14.7,90,78,53,29.84,29.80,6,2,12,0.00
2013-3-21,28.4,23.7,17.1,24.9,18.2,12.3,93,80,57,29.84,29.72,6,2,12,0.00
2013-3-22,31.2,27.5,23.9,26.5,24.0,21.0,91,86,79,29.96,29.77,5,2,11,0.00
2013-3-23,41.9,32.8,26.7,27.3,23.8,20.8,86,71,46,30.03,29.93,3,1,10,0.07
2013-3-24,40.2,30.7,18.4,27.7,22.4,16.7,96,73,50,30.03,29.70,5,2,12,0.00
2013-3-25,41.6,35.0,30.8,30.3,26.4,23.8,83,71,56,29.74,29.60,6,2,11,0.00
2013-3-26,49.5,37.8,30.6,34.1,30.1,26.9,90,75,47,29.95,29.74,4,1,12,0.00
2013-3-27,41.4,33.7,30.7,32.9,30.1,26.0,95,87,70,30.07,29.94,6,2,11,0.07
2013-3-28,40.8,35.0,31.8,35.7,32.4,30.5,95,90,80,30.22,30.06,4,1,8,0.18
2013-3-29,49.5,38.5,31.5,34.9,32.0,29.1,93,79,48,30.21,30.14,5,2,13,0.00
2013-3-30,51.0,38.9,24.9,34.7,26.7,21.8,96,66,35,30.22,30.01,5,1,9,0.00
2013-3-31,59.3,46.1,38.1,42.4,31.5,23.4,93,60,33,30.01,29.58,8,2,11,0.03
2013-4-1,46.1,34.8,26.2,41.2,25.0,12.8,93,69,42,29.97,29.56,7,3,15,0.02
2013-4-2,34.1,28.1,22.7,23.0,17.1,14.4,75,63,48,30.14,29.96,6,3,16,0.00
2013-4-3,37.7,29.9,25.1,20.3,16.7,11.5,75,59,35,30.40,30.13,5,2,10,0.00
2013-4-4,51.4,35.3,21.7,20.6,17.2,11.6,81,52,24,30.36,29.91,5,2,10,0.00
2013-4-5,44.1,36.5,27.9,27.7,21.2,13.3,73,54,41,30.17,29.88,5,1,10,0.00
2013-4-6,53.0,36.5,16.8,26.4,18.6,13.4,91,53,21,30.32,29.99,3,1,6,0.00
2013-4-7,64.4,53.7,41.9,45.9,33.9,19.5,73,49,30,30.02,29.68,11,5,20,0.00
2013-4-8,63.2,46.7,29.1,51.2,37.3,26.8,93,72,41,30.09,29.72,6,1,11,0.22
2013-4-9,61.6,49.7,43.7,50.9,44.1,40.6,96,82,53,30.10,29.76,5,2,9,0.90
2013-4-10,47.1,43.0,38.5,45.7,42.0,37.7,98,96,92,30.01,29.82,6,3,11,0.87
2013-4-11,38.5,34.3,31.9,37.7,32.1,29.3,97,92,79,30.09,29.88,7,4,13,0.68
2013-4-12,49.9,38.0,33.0,49.3,36.4,30.9,98,94,86,29.88,29.47,8,4,16,0.91
2013-4-13,43.7,39.4,36.9,36.5,34.8,32.1,89,83,69,29.93,29.76,8,5,14,0.00
2013-4-14,48.6,40.2,33.7,33.8,30.1,26.6,88,68,50,30.16,29.93,4,2,10,0.01
2013-4-15,76.1,56.7,36.7,49.5,40.9,28.7,76,58,37,30.12,29.94,6,2,11,0.00
2013-4-16,64.2,56.4,45.0,57.0,49.9,40.6,96,80,58,30.21,29.92,8,4,15,0.21
2013-4-17,58.5,45.7,32.1,40.8,34.7,30.8,97,68,43,30.34,30.15,6,1,10,0.00
2013-4-18,83.7,64.0,45.3,60.7,49.7,32.1,72,61,45,30.17,29.62,10,5,18,0.00
2013-4-19,72.7,56.4,40.5,59.5,46.8,30.1,90,71,60,29.73,29.31,12,6,21,0.08
2013-4-20,40.6,36.5,29.8,32.4,26.5,20.1,87,68,49,30.41,29.72,8,4,15,0.01
2013-4-21,47.8,35.2,21.0,28.2,22.8,17.9,92,63,42,30.67,30.42,5,1,10,0.00
2013-4-22,65.1,47.7,27.0,30.9,25.6,19.7,83,46,22,30.57,30.28,6,1,11,0.00
2013-4-23,69.3,54.6,39.9,38.0,32.5,24.8,66,45,28,30.29,29.88,3,1,7,0.00
2013-4-24,63.7,52.3,36.5,55.8,43.8,32.3,95,75,38,30.03,29.58,7,3,13,0.51
2013-4-25,54.8,42.2,30.1,38.9,33.3,26.3,97,74,38,30.31,30.03,7,2,12,0.05
2013-4-26,55.4,44.7,32.0,37.2,30.2,17.7,98,62,28,30.47,30.31,4,1,7,0.00
2013-4-27,72.6,54.4,34.1,42.2,32.6,23.9,79,47,22,30.42,30.17,2,1,6,0.00
2013-4-28,74.5,59.0,43.5,49.7,41.0,33.9,80,55,25,30.17,29.95,7,2,13,0.07
2013-4-29,64.3,58.1,50.8,53.6,50.0,45.7,89,75,66,30.00,29.91,5,1,9,0.08
2013-4-30,75.2,62.8,57.0,56.2,53.0,50.4,86,72,49,30.11,29.99,3,1,6,0.00
2013-5-1,83.2,70.9,60.1,56.4,49.4,35.7,65,47,33,30.27,30.22,6,2,9,0.00
2013-5-2,83.4,66.8,47.6,45.1,39.4,32.7,73,39,17,30.36,30.20,5,1,9,0.00
2013-5-3,81.8,67.0,47.5,47.8,43.4,38.0,79,45,26,30.25,30.13,3,1,8,0.00
2013-5-4,78.0,64.2,50.8,47.2,41.7,33.5,72,46,21,30.23,30.08,6,2,11,0.00
2013-5-5,80.3,62.8,43.6,48.0,44.2,40.1,91,55,26,30.17,30.02,6,1,13,0.00
2013-5-6,77.3,61.4,44.8,43.9,38.5,31.8,81,47,20,30.12,29.98,5,1,7,0.00
2013-5-7,79.8,64.4,47.4,55.3,49.8,41.6,91,62,36,30.08,29.95,6,1,9,0.00
2013-5-8,70.8,62.0,54.0,61.4,55.3,49.4,95,80,60,30.00,29.89,3,0,5,0.22
2013-5-9,67.7,59.6,54.0,61.0,56.1,50.3,97,89,71,29.94,29.84,3,0,7,0.13
2013-5-10,77.1,60.3,48.1,61.6,55.3,46.7,97,85,56,29.92,29.67,4,1,13,0.42
2013-5-11,60.0,49.7,45.6,58.0,46.9,43.1,97,90,80,29.76,29.64,6,2,13,0.19
2013-5-12,50.0,42.2,36.9,47.2,35.8,29.4,93,78,59,29.94,29.67,9,4,20,0.17
2013-5-13,46.7,39.9,33.2,36.0,32.5,29.3,89,75,61,30.14,29.94,5,2,11,0.01
2013-5-14,58.6,47.0,31.0,39.9,32.9,26.9,96,62,34,30.14,29.89,3,1,7,0.00
2013-5-15,78.1,65.9,49.7,59.1,49.9,39.9,73,57,41,29.90,29.51,9,2,16,0.01
2013-5-16,77.2,62.8,50.0,50.7,45.0,32.4,88,57,25,29.99,29.71,4,2,16,0.00
2013-5-17,68.1,54.3,38.0,46.6,41.2,36.4,95,64,40,30.19,29.99,3,1,8,0.00
2013-5-18,74.3,60.3,44.2,50.3,45.0,39.8,90,59,39,30.21,30.08,4,1,8,0.00
2013-5-19,85.7,69.1,53.1,63.9,57.1,45.0,92,67,40,30.09,29.92,3,1,6,0.00
2013-5-20,89.2,75.2,58.3,68.3,62.9,55.9,94,68,42,29.99,29.80,4,0,8,0.00
2013-5-21,88.0,75.0,64.0,70.3,64.0,58.7,86,70,51,29.90,29.70,5,1,12,0.00
2013-5-22,88.0,74.3,62.5,67.7,63.6,59.8,96,72,46,29.75,29.59,5,1,10,0.10
2013-5-23,73.9,63.6,44.5,63.9,58.1,42.9,94,83,67,29.88,29.65,4,2,11,0.39
2013-5-24,52.0,45.3,39.0,37.1,36.1,34.8,90,71,54,30.23,30.12,5,2,12,0.12
2013-5-25,59.6,48.4,37.2,38.8,35.9,32.1,94,64,41,30.26,30.17,6,2,11,0.00
2013-5-26,65.7,52.2,39.1,44.5,36.3,30.0,95,59,29,30.23,30.16,4,1,9,0.00
2013-5-27,73.7,57.2,38.1,46.3,40.0,31.5,97,60,25,30.26,30.10,2,0,6,0.00
2013-5-28,65.0,58.7,51.9,62.4,53.5,39.0,97,84,51,30.12,29.87,4,0,6,1.69
2013-5-29,81.1,69.9,63.4,64.9,62.5,59.6,97,79,56,29.98,29.84,6,2,14,0.50
2013-5-30,85.3,74.2,60.8,68.2,63.5,58.2,93,71,54,30.08,29.98,4,1,10,0.00
2013-5-31,88.6,77.9,66.6,67.0,64.4,61.4,89,65,44,30.02,29.88,5,1,9,0.01
2013-6-1,85.6,69.7,65.2,68.8,65.6,62.6,96,88,56,29.92,29.72,4,0,9,0.70
2013-6-2,73.3,67.6,56.2,66.4,61.5,50.1,97,82,61,29.87,29.64,8,2,15,1.42
2013-6-3,61.9,54.6,46.2,50.3,45.9,41.9,93,73,58,30.02,29.87,4,1,7,0.00
2013-6-4,68.6,55.9,41.6,46.1,42.2,35.6,95,64,33,30.15,30.02,4,1,9,0.00
2013-6-5,71.1,57.6,45.7,51.1,46.1,40.8,96,69,42,30.19,30.04,4,1,9,0.00
2013-6-6,59.5,55.8,52.5,58.4,51.7,41.0,97,87,58,30.04,29.80,3,1,6,1.59
2013-6-7,60.4,57.1,53.9,56.8,55.5,53.1,98,94,85,29.84,29.78,3,1,5,0.01
2013-6-8,63.7,58.3,55.4,58.2,55.8,52.9,98,92,78,30.06,29.81,2,0,7,0.04
2013-6-9,78.9,65.2,49.8,60.0,55.3,48.6,96,73,47,30.17,30.06,2,0,5,0.00
2013-6-10,73.1,66.3,61.3,68.9,62.4,56.6,95,88,76,30.06,29.67,3,0,11,0.37
2013-6-11,72.6,65.5,59.7,63.1,60.9,56.6,97,86,66,29.82,29.62,3,1,7,0.17
2013-6-12,80.7,67.4,51.4,59.9,56.2,50.5,98,70,46,29.90,29.71,2,0,5,0.00
2013-6-13,68.7,61.1,56.9,61.5,58.1,54.8,97,90,71,29.76,29.47,6,2,13,1.10
2013-6-14,74.0,62.0,51.1,61.5,56.8,50.3,98,84,58,29.98,29.76,3,1,7,0.00
2013-6-15,71.7,62.1,47.9,56.0,51.7,47.3,98,72,46,30.05,29.92,3,1,7,0.00
2013-6-16,75.0,66.2,61.5,67.5,60.4,54.6,94,82,74,29.92,29.68,4,1,11,0.16
2013-6-17,78.3,69.4,59.7,64.6,60.3,57.0,97,75,50,29.89,29.78,4,1,9,0.00
2013-6-18,70.0,62.2,52.8,57.6,52.7,46.4,93,73,43,30.00,29.85,4,1,9,0.00
2013-6-19,70.0,59.1,47.6,50.5,46.1,39.9,97,66,37,30.17,30.00,3,1,7,0.00
2013-6-20,80.5,61.3,44.1,52.0,47.5,42.1,97,65,27,30.22,30.16,3,0,6,0.00
2013-6-21,85.0,69.8,49.5,58.1,51.4,44.3,95,56,32,30.24,30.13,2,0,5,0.00
2013-6-22,87.7,75.7,61.9,69.2,63.3,55.9,85,66,52,30.12,29.96,5,1,13,0.00
2013-6-23,88.6,78.3,68.8,71.0,67.6,65.2,92,71,50,30.03,29.94,5,1,9,0.12
2013-6-24,84.2,77.3,71.5,69.8,67.0,65.4,84,71,54,30.01,29.91,5,2,14,0.00
2013-6-25,79.6,74.7,69.9,69.8,66.8,63.1,87,77,66,29.86,29.76,5,2,11,0.12
2013-6-26,79.9,73.1,67.7,69.6,66.1,63.6,93,80,61,29.81,29.75,4,1,10,0.00
2013-6-27,80.0,69.9,64.2,72.0,66.0,61.9,96,88,66,29.77,29.59,2,0,5,1.14
2013-6-28,72.3,65.6,61.7,68.1,63.9,60.8,98,94,81,29.60,29.46,2,0,3,1.04
2013-6-29,76.6,66.8,60.7,66.2,62.2,58.3,98,86,67,29.67,29.45,2,1,5,0.37
2013-6-30,77.6,68.5,58.4,65.9,61.7,57.3,98,80,62,29.89,29.67,4,1,6,0.00
2013-7-1,70.3,64.5,59.3,63.0,61.1,57.9,95,89,76,30.03,29.89,4,2,7,0.65
2013-7-2,78.3,66.6,58.1,68.7,62.8,56.9,96,88,72,30.06,29.99,3,1,5,0.02
2013-7-3,90.1,75.6,63.8,74.7,68.9,62.9,98,82,52,30.10,30.03,3,0,6,0.14
2013-7-4,85.6,75.7,69.7,72.4,69.6,66.5,96,83,55,30.14,30.06,2,0,6,0.05
2013-7-5,84.8,75.1,70.2,73.0,69.4,66.2,93,83,65,30.09,30.02,3,1,8,0.01
2013-7-6,86.7,76.4,65.4,72.0,68.6,63.9,97,78,57,30.11,29.98,2,0,8,0.00
2013-7-7,82.0,75.1,70.9,70.8,68.8,66.6,96,81,62,30.01,29.90,5,2,11,0.03
2013-7-8,82.3,75.1,69.7,71.9,68.8,66.5,94,82,60,30.02,29.94,3,1,8,0.00
2013-7-9,82.5,74.5,69.6,73.3,70.0,68.1,95,86,71,30.01,29.85,2,0,4,0.03
2013-7-10,83.7,75.9,69.7,75.3,70.5,62.1,97,84,73,29.85,29.66,5,2,12,0.04
2013-7-11,78.5,69.8,60.9,63.0,59.0,55.4,92,70,51,29.99,29.81,2,0,6,0.00
2013-7-12,76.0,66.7,58.4,66.2,61.8,57.3,97,85,68,30.15,29.99,2,0,5,0.00
2013-7-13,86.6,71.9,57.9,70.4,65.3,57.1,98,81,57,30.20,30.13,3,1,7,0.00
2013-7-14,92.9,79.3,65.3,74.7,69.7,64.1,97,75,48,30.26,30.19,2,0,4,0.00
2013-7-15,91.9,81.2,71.6,76.1,70.6,59.6,96,73,41,30.26,30.19,2,0,5,0.00
2013-7-16,93.0,81.7,69.5,76.1,70.8,64.8,96,73,41,30.25,30.16,3,0,6,0.00
2013-7-17,91.1,82.0,74.9,79.0,75.5,71.5,96,82,53,30.19,30.05,4,1,10,0.00
2013-7-18,92.1,82.4,76.2,77.9,75.1,72.4,96,80,58,30.07,29.90,3,1,10,0.00
2013-7-19,88.8,82.1,66.5,76.7,72.7,64.6,97,74,55,29.91,29.67,6,3,16,1.39
2013-7-20,84.4,74.3,65.4,71.1,67.4,62.4,98,81,48,29.86,29.68,4,1,9,0.71
2013-7-21,79.5,71.2,63.3,65.1,62.5,60.1,94,75,57,29.96,29.86,3,1,6,0.00
2013-7-22,81.1,70.6,58.8,68.4,63.7,57.4,95,80,59,29.96,29.73,2,1,7,0.00
2013-7-23,81.1,72.2,62.1,70.7,66.7,58.1,98,84,61,29.73,29.58,4,1,12,0.52
2013-7-24,68.2,62.0,52.2,58.3,52.4,48.4,94,72,52,30.02,29.69,3,1,8,0.01
2013-7-25,77.0,63.4,48.3,58.0,52.6,47.2,98,71,43,30.10,30.01,3,1,7,0.00
2013-7-26,80.3,71.1,49.1,60.7,57.3,48.0,97,63,46,30.09,29.96,3,1,6,0.00
2013-7-27,79.7,68.5,58.0,66.3,61.3,55.2,94,79,56,29.97,29.76,1,0,6,0.11
2013-7-28,73.8,67.5,61.6,64.4,58.2,52.7,94,73,53,29.95,29.75,3,1,11,0.00
2013-7-29,71.8,63.6,57.1,60.9,57.3,54.6,95,81,63,30.12,29.93,3,1,10,0.18
2013-7-30,76.0,65.5,53.7,61.7,57.4,52.1,96,77,53,30.17,30.11,2,0,6,0.00
2013-7-31,80.7,68.5,55.9,64.9,58.3,52.8,96,73,41,30.13,29.88,2,0,6,0.00
2013-8-1,78.7,69.0,62.8,69.6,63.4,60.2,96,83,58,29.88,29.73,3,1,7,0.66
2013-8-2,77.6,67.1,55.8,67.5,60.1,54.9,99,80,53,29.86,29.79,5,1,11,0.42
2013-8-3,77.4,67.6,57.7,63.4,58.7,51.4,98,75,42,29.92,29.79,3,1,7,0.00
2013-8-4,74.4,63.7,51.2,59.6,53.9,49.1,94,72,50,30.06,29.92,3,1,6,0.00
2013-8-5,75.5,61.6,48.7,56.7,51.5,47.5,97,73,44,30.10,29.99,1,0,4,0.00
2013-8-6,83.9,68.7,54.2,61.7,56.8,51.9,94,69,42,30.02,29.92,1,0,5,0.00
2013-8-7,84.7,74.1,64.4,69.9,64.6,59.5,87,73,57,29.94,29.80,2,0,6,0.00
2013-8-8,85.1,74.1,65.0,73.2,68.8,63.6,98,84,64,29.92,29.84,3,0,5,0.74
2013-8-9,80.2,70.2,63.3,69.3,64.8,59.7,97,84,57,29.91,29.83,3,0,8,0.50
2013-8-10,74.3,67.2,56.1,64.5,55.8,49.8,96,69,45,30.06,29.91,3,1,5,0.00
2013-8-11,78.4,65.1,50.0,58.9,54.4,49.2,98,71,45,30.11,30.01,2,0,5,0.00
2013-8-12,78.4,69.2,59.4,64.9,60.6,56.1,90,75,55,30.02,29.81,2,0,8,0.00
2013-8-13,71.1,65.3,56.3,66.0,58.0,47.3,97,78,54,29.87,29.72,4,1,7,0.33
2013-8-14,71.1,61.8,52.0,53.9,50.0,45.5,91,67,42,30.07,29.85,3,1,7,0.00
2013-8-15,73.8,61.5,48.2,56.9,50.8,46.3,94,71,45,30.12,30.05,4,1,9,0.00
2013-8-16,78.6,63.9,50.4,60.8,55.0,48.9,97,75,47,30.18,30.09,2,0,5,0.00
2013-8-17,83.6,66.6,51.7,60.1,54.9,50.9,98,71,37,30.26,30.18,2,0,6,0.00
2013-8-18,84.8,69.6,56.5,64.6,58.2,52.8,93,69,42,30.21,30.07,2,0,4,0.00
2013-8-19,82.3,70.0,57.9,66.7,61.5,56.8,97,77,49,30.09,30.00,2,0,5,0.00
2013-8-20,82.6,69.4,59.9,65.9,62.0,57.1,95,79,51,30.10,30.03,3,0,9,0.00
2013-8-21,85.4,73.0,61.5,66.9,62.8,58.2,91,72,47,30.13,29.99,3,1,8,0.00
2013-8-22,80.2,71.3,61.3,72.3,66.5,59.3,94,85,75,30.00,29.88,4,1,10,0.18
2013-8-23,76.3,64.7,53.0,60.3,55.7,51.9,98,76,46,30.18,29.97,3,1,10,0.00
2013-8-24,79.0,59.8,48.6,59.2,52.7,47.7,98,80,41,30.33,30.18,2,0,6,0.00
2013-8-25,83.1,69.5,54.2,63.1,55.7,51.1,90,64,38,30.31,30.10,3,1,9,0.00
2013-8-26,78.1,71.9,69.4,71.4,67.1,61.4,96,86,69,30.14,29.90,5,1,13,0.84
2013-8-27,79.8,71.9,66.4,72.7,69.8,65.5,98,93,79,29.91,29.84,1,0,5,0.04
2013-8-28,85.2,74.7,67.8,74.5,70.5,66.3,98,87,66,29.92,29.81,4,1,10,0.21
2013-8-29,86.8,73.8,62.3,71.9,66.8,61.6,99,81,53,30.01,29.92,2,0,6,0.00
2013-8-30,83.8,73.3,62.7,70.9,67.0,62.1,98,82,61,29.97,29.70,3,0,8,0.00
2013-8-31,82.5,74.5,67.9,71.3,69.3,66.2,95,84,66,29.81,29.66,3,1,8,0.01
2013-9-1,86.3,73.0,64.8,72.9,68.6,63.9,98,87,61,29.80,29.71,2,0,4,0.05
2013-9-2,81.0,71.5,61.5,73.0,66.5,55.4,97,85,65,29.77,29.65,3,1,8,0.00
2013-9-3,67.3,62.7,58.7,59.5,56.8,53.8,90,81,74,29.94,29.76,3,1,10,0.01
2013-9-4,75.3,65.7,51.8,64.5,57.7,49.4,98,77,43,29.98,29.92,5,2,13,0.01
2013-9-5,65.8,58.0,44.0,62.3,49.6,41.1,98,76,45,30.22,29.95,4,1,9,0.00
2013-9-6,70.2,56.3,41.1,51.0,45.3,39.9,97,70,37,30.28,30.07,2,0,6,0.00
2013-9-7,66.1,60.2,53.6,61.9,54.7,48.6,96,83,63,30.08,29.85,2,0,9,0.27
2013-9-8,67.3,62.1,48.7,65.3,53.5,46.1,97,76,50,30.09,29.84,5,1,12,0.01
2013-9-9,74.8,61.0,45.7,64.5,53.1,43.5,95,77,55,30.12,29.92,1,0,8,0.00
2013-9-10,87.2,78.9,68.3,74.1,70.4,64.3,92,76,63,29.97,29.87,6,2,16,0.26
2013-9-11,88.5,81.2,67.6,74.0,71.9,65.7,94,74,58,29.98,29.86,6,2,12,0.10
2013-9-12,74.1,68.2,58.1,69.3,65.5,55.6,97,91,76,29.91,29.70,3,0,14,0.30
2013-9-13,59.0,53.6,49.1,56.5,49.8,45.0,92,87,77,30.03,29.75,3,1,8,0.01
2013-9-14,65.2,53.6,45.1,47.2,43.3,32.5,93,71,31,30.12,30.02,3,0,6,0.00
2013-9-15,67.9,56.9,45.2,54.7,48.2,39.7,94,74,58,30.14,30.03,3,0,9,0.11
2013-9-16,52.4,48.6,37.5,51.5,46.5,36.6,97,92,80,30.37,30.05,4,0,9,0.04
2013-9-17,68.5,49.3,33.3,47.1,41.3,32.8,99,78,43,30.48,30.26,3,0,5,0.00
2013-9-18,76.6,57.5,40.6,55.3,46.6,39.5,97,71,38,30.27,30.07,2,0,5,0.00
2013-9-19,66.5,51.7,46.6,57.2,49.0,45.6,98,91,71,30.10,30.07,0,0,2,0.00